createdAt,value
2018-11-10T00:01:06.654Z,21.33
2018-11-10T00:03:34.834Z,20.33
2018-11-10T00:06:11.703Z,20.30
2018-11-10T00:08:39.999Z,20.40
2018-11-10T00:11:13.750Z,21.60
2018-11-10T00:13:42.254Z,20.30
2018-11-10T00:16:15.467Z,22.70
2018-11-10T00:18:44.275Z,21.27
2018-11-10T00:21:24.561Z,21.10
2018-11-10T00:23:58.915Z,21.00
2018-11-10T00:26:27.853Z,21.33
2018-11-10T00:28:59.451Z,21.47
2018-11-10T00:31:34.018Z,19.90
2018-11-10T00:34:10.495Z,20.30
2018-11-10T00:36:38.951Z,20.97
2018-11-10T00:39:12.328Z,19.60
2018-11-10T00:41:40.783Z,20.83
2018-11-10T00:44:16.831Z,21.47
2018-11-10T00:46:45.279Z,20.37
2018-11-10T00:49:16.945Z,21.37
2018-11-10T00:51:45.420Z,21.17
2018-11-10T00:54:19.985Z,21.47
2018-11-10T00:56:49.276Z,20.27
2018-11-10T00:59:31.649Z,19.87
2018-11-10T01:02:05.748Z,23.57
2018-11-10T01:04:40.156Z,21.40
2018-11-10T01:07:38.871Z,21.03
2018-11-10T01:10:11.255Z,21.20
2018-11-10T01:12:40.995Z,22.33
2018-11-10T01:15:32.512Z,21.53
2018-11-10T01:18:00.915Z,20.40
2018-11-10T01:20:34.896Z,21.33
2018-11-10T01:23:09.905Z,20.30
2018-11-10T01:25:40.663Z,20.73
2018-11-10T01:28:09.055Z,19.90
2018-11-10T01:30:38.240Z,22.27
2018-11-10T01:33:12.372Z,21.73
2018-11-10T01:35:42.206Z,20.37
2018-11-10T01:38:22.128Z,20.97
2018-11-10T01:40:51.100Z,20.27
2018-11-10T01:43:19.997Z,20.33
2018-11-10T01:45:49.000Z,21.23
2018-11-10T01:48:31.621Z,22.27
2018-11-10T01:51:00.520Z,20.67
2018-11-10T01:53:35.899Z,20.70
2018-11-10T01:58:46.279Z,23.33
2018-11-10T02:01:14.855Z,22.50
2018-11-10T02:03:56.488Z,22.20
2018-11-10T02:06:30.272Z,24.27
2018-11-10T02:09:02.588Z,22.53
2018-11-10T02:11:37.425Z,21.07
2018-11-10T02:14:31.301Z,21.40
2018-11-10T02:17:00.508Z,22.00
2018-11-10T02:22:16.716Z,20.07
2018-11-10T02:24:48.721Z,20.23
2018-11-10T02:27:29.913Z,23.60
2018-11-10T02:30:02.061Z,22.60
2018-11-10T02:32:33.781Z,21.43
2018-11-10T02:35:02.025Z,20.60
2018-11-10T02:37:48.221Z,24.50
2018-11-10T02:40:26.068Z,20.47
2018-11-10T02:42:55.386Z,21.03
2018-11-10T02:45:24.397Z,22.67
2018-11-10T02:48:04.221Z,22.20
2018-11-10T02:50:39.749Z,21.93
2018-11-10T02:53:11.169Z,21.90
2018-11-10T02:55:39.681Z,21.27
2018-11-10T02:58:11.710Z,25.23
2018-11-10T03:00:41.042Z,21.57
2018-11-10T03:03:09.513Z,22.27
2018-11-10T03:05:38.282Z,22.27
2018-11-10T03:08:06.405Z,23.27
2018-11-10T03:10:34.745Z,20.97
2018-11-10T03:13:03.030Z,21.53
2018-11-10T03:15:31.313Z,21.50
2018-11-10T03:17:59.650Z,21.90
2018-11-10T03:20:28.002Z,22.53
2018-11-10T03:22:56.314Z,24.37
2018-11-10T03:25:24.633Z,21.37
2018-11-10T03:27:52.942Z,20.87
2018-11-10T03:30:21.299Z,22.63
2018-11-10T03:32:49.605Z,20.63
2018-11-10T03:35:17.954Z,21.47
2018-11-10T03:37:46.277Z,22.67
2018-11-10T03:40:14.630Z,21.50
2018-11-10T03:42:42.929Z,21.73
2018-11-10T03:45:12.062Z,20.87
2018-11-10T03:47:40.521Z,22.10
2018-11-10T03:50:09.397Z,22.60
2018-11-10T03:52:37.770Z,19.40
2018-11-10T03:55:06.598Z,18.70
2018-11-10T03:57:34.950Z,20.27
2018-11-10T04:00:03.298Z,20.43
2018-11-10T04:02:31.628Z,22.47
2018-11-10T04:05:00.114Z,23.23
2018-11-10T04:07:28.478Z,22.30
2018-11-10T04:09:56.787Z,21.80
2018-11-10T04:12:25.135Z,22.70
2018-11-10T04:14:53.474Z,25.40
2018-11-10T04:17:21.787Z,18.63
2018-11-10T04:19:50.095Z,18.10
2018-11-10T04:22:25.602Z,22.73
2018-11-10T04:24:53.918Z,21.33
2018-11-10T04:27:22.218Z,18.80
2018-11-10T04:29:50.566Z,19.63
2018-11-10T04:32:18.902Z,20.63
2018-11-10T04:34:47.295Z,18.73
2018-11-10T04:37:15.626Z,18.63
2018-11-10T04:39:43.919Z,18.27
2018-11-10T04:44:46.880Z,20.20
2018-11-10T04:47:15.301Z,17.97
2018-11-10T04:49:43.717Z,20.00
2018-11-10T04:52:11.968Z,17.83
2018-11-10T04:54:40.307Z,18.60
2018-11-10T04:57:08.623Z,17.73
2018-11-10T04:59:37.088Z,18.47
2018-11-10T05:02:05.459Z,19.17
2018-11-10T05:04:33.772Z,20.50
2018-11-10T05:07:02.099Z,16.83
2018-11-10T05:09:30.534Z,15.27
2018-11-10T05:11:58.843Z,13.23
2018-11-10T05:14:27.738Z,13.63
2018-11-10T05:16:56.031Z,13.30
2018-11-10T05:19:24.775Z,12.53
2018-11-10T05:21:53.075Z,16.00
2018-11-10T05:24:21.407Z,12.33
2018-11-10T05:26:49.695Z,13.97
2018-11-10T05:29:18.016Z,13.77
2018-11-10T05:31:46.300Z,12.63
2018-11-10T05:34:14.616Z,13.90
2018-11-10T05:36:42.936Z,11.83
2018-11-10T05:39:11.492Z,13.57
2018-11-10T05:41:39.870Z,12.33
2018-11-10T05:44:08.167Z,12.10
2018-11-10T05:46:36.507Z,12.20
2018-11-10T05:49:05.143Z,11.73
2018-11-10T05:51:33.512Z,11.63
2018-11-10T05:54:01.767Z,11.77
2018-11-10T05:56:30.063Z,13.40
2018-11-10T05:58:58.364Z,11.43
2018-11-10T06:01:26.671Z,10.27
2018-11-10T06:03:54.983Z,9.90
2018-11-10T06:06:23.273Z,9.97
2018-11-10T06:08:51.564Z,10.60
2018-11-10T06:11:19.835Z,10.57
2018-11-10T06:13:48.179Z,8.67
2018-11-10T06:16:16.560Z,9.17
2018-11-10T06:18:44.800Z,9.60
2018-11-10T06:21:13.030Z,10.37
2018-11-10T06:23:41.333Z,9.07
2018-11-10T06:26:09.806Z,8.47
2018-11-10T06:28:38.076Z,9.07
2018-11-10T06:31:06.513Z,8.53
2018-11-10T06:33:34.824Z,8.93
2018-11-10T06:36:03.105Z,8.83
2018-11-10T06:38:31.420Z,8.27
2018-11-10T06:40:59.772Z,9.33
2018-11-10T06:43:28.073Z,8.00
2018-11-10T06:45:56.421Z,8.23
2018-11-10T06:48:24.764Z,8.73
2018-11-10T06:50:53.121Z,6.90
2018-11-10T06:53:21.502Z,7.43
2018-11-10T06:55:49.801Z,7.23
2018-11-10T06:58:18.073Z,7.73
2018-11-10T07:00:46.503Z,7.03
2018-11-10T07:03:14.892Z,7.80
2018-11-10T07:05:43.265Z,9.67
2018-11-10T07:08:11.537Z,8.67
2018-11-10T07:10:39.901Z,7.20
2018-11-10T07:13:08.332Z,6.43
2018-11-10T07:15:36.637Z,7.23
2018-11-10T07:18:05.423Z,7.87
2018-11-10T07:20:33.715Z,6.00
2018-11-10T07:23:02.037Z,7.27
2018-11-10T07:25:30.341Z,9.83
2018-11-10T07:27:58.601Z,5.80
2018-11-10T07:30:26.922Z,5.43
2018-11-10T07:32:55.213Z,6.33
2018-11-10T07:35:23.522Z,5.33
2018-11-10T07:37:51.986Z,6.10
2018-11-10T07:40:20.376Z,5.27
2018-11-10T07:42:48.672Z,6.37
2018-11-10T07:45:16.970Z,5.73
2018-11-10T07:47:47.141Z,5.77
2018-11-10T07:50:15.377Z,5.73
2018-11-10T07:52:43.752Z,7.00
2018-11-10T07:55:13.486Z,6.30
2018-11-10T07:57:41.761Z,6.23
2018-11-10T08:00:13.325Z,6.37
2018-11-10T08:02:41.610Z,5.63
2018-11-10T08:05:10.862Z,5.70
2018-11-10T08:07:41.970Z,5.70
2018-11-10T08:10:11.178Z,5.63
2018-11-10T08:12:40.068Z,5.37
2018-11-10T08:15:12.273Z,5.30
2018-11-10T08:17:41.562Z,5.47
2018-11-10T08:20:12.229Z,6.40
2018-11-10T08:22:42.118Z,7.20
2018-11-10T08:25:13.169Z,6.70
2018-11-10T08:27:43.277Z,6.43
2018-11-10T08:30:14.736Z,5.87
2018-11-10T08:32:44.039Z,6.77
2018-11-10T08:35:13.361Z,7.03
2018-11-10T08:37:41.650Z,5.90
2018-11-10T08:40:13.424Z,6.40
2018-11-10T08:42:41.722Z,6.30
2018-11-10T08:45:11.482Z,5.73
2018-11-10T08:47:40.068Z,5.87
2018-11-10T08:50:09.574Z,5.40
2018-11-10T08:52:37.846Z,5.50
2018-11-10T08:55:06.895Z,7.10
2018-11-10T08:57:35.505Z,11.03
2018-11-10T09:00:04.034Z,6.23
2018-11-10T09:02:40.619Z,6.23
2018-11-10T09:05:10.368Z,7.17
2018-11-10T09:07:38.802Z,6.27
2018-11-10T09:10:08.854Z,7.40
2018-11-10T09:12:37.075Z,5.57
2018-11-10T09:15:07.389Z,9.37
2018-11-10T09:17:35.599Z,8.40
2018-11-10T09:20:04.467Z,5.43
2018-11-10T09:22:32.696Z,6.00
2018-11-10T09:25:00.979Z,6.03
2018-11-10T09:27:29.219Z,7.03
2018-11-10T09:29:57.478Z,6.83
2018-11-10T09:32:26.139Z,5.30
2018-11-10T09:34:54.399Z,5.33
2018-11-10T09:37:22.676Z,4.60
2018-11-10T09:39:50.959Z,6.20
2018-11-10T09:42:19.307Z,4.90
2018-11-10T09:44:47.479Z,5.00
2018-11-10T09:47:15.811Z,4.50
2018-11-10T09:49:44.080Z,4.73
2018-11-10T09:52:12.323Z,7.37
2018-11-10T09:54:40.575Z,5.43
2018-11-10T09:57:08.848Z,4.97
2018-11-10T09:59:37.103Z,5.20
2018-11-10T10:02:06.086Z,7.10
2018-11-10T10:04:34.095Z,5.60
2018-11-10T10:07:02.355Z,4.77
2018-11-10T10:09:30.596Z,4.97
2018-11-10T10:11:58.840Z,5.37
2018-11-10T10:14:27.095Z,5.23
2018-11-10T10:16:55.352Z,4.73
2018-11-10T10:19:23.628Z,6.00
2018-11-10T10:21:51.928Z,5.10
2018-11-10T10:24:20.088Z,8.70
2018-11-10T10:26:48.335Z,5.80
2018-11-10T10:29:16.560Z,5.90
2018-11-10T10:31:44.812Z,6.10
2018-11-10T10:34:13.101Z,5.17
2018-11-10T10:36:41.336Z,5.77
2018-11-10T10:39:10.139Z,7.20
2018-11-10T10:41:38.864Z,4.30
2018-11-10T10:44:07.876Z,4.40
2018-11-10T10:46:36.165Z,4.87
2018-11-10T10:49:04.726Z,5.13
2018-11-10T10:51:32.931Z,4.43
2018-11-10T10:54:01.460Z,4.73
2018-11-10T10:56:30.031Z,4.53
2018-11-10T10:58:58.193Z,4.40
2018-11-10T11:01:31.881Z,4.30
2018-11-10T11:04:00.572Z,4.43
2018-11-10T11:06:28.840Z,5.40
2018-11-10T11:08:57.161Z,4.53
2018-11-10T11:11:25.356Z,4.70
2018-11-10T11:13:53.588Z,4.43
2018-11-10T11:16:21.816Z,4.70
2018-11-10T11:18:50.077Z,5.73
2018-11-10T11:21:18.332Z,4.60
2018-11-10T11:23:46.577Z,9.37
2018-11-10T11:26:14.808Z,4.73
2018-11-10T11:28:43.036Z,4.97
2018-11-10T11:31:11.365Z,3.97
2018-11-10T11:33:39.558Z,6.47
2018-11-10T11:36:07.789Z,4.10
2018-11-10T11:38:36.045Z,4.67
2018-11-10T11:41:04.471Z,4.03
2018-11-10T11:43:32.689Z,4.23
2018-11-10T11:46:00.936Z,4.30
2018-11-10T11:48:29.252Z,4.40
2018-11-10T11:50:57.496Z,4.63
2018-11-10T11:53:25.789Z,3.63
2018-11-10T11:55:54.043Z,3.83
2018-11-10T11:58:22.375Z,3.73
2018-11-10T12:00:50.624Z,5.03
2018-11-10T12:03:18.923Z,3.77
2018-11-10T12:05:47.281Z,5.47
2018-11-10T12:08:15.596Z,3.53
2018-11-10T12:10:43.865Z,3.27
2018-11-10T12:13:12.163Z,4.00
2018-11-10T12:15:40.490Z,3.83
2018-11-10T12:18:08.711Z,3.37
2018-11-10T12:20:36.956Z,3.70
2018-11-10T12:23:05.417Z,4.37
2018-11-10T12:25:33.668Z,3.33
2018-11-10T12:28:01.912Z,3.07
2018-11-10T12:30:30.137Z,3.27
2018-11-10T12:32:58.465Z,3.80
2018-11-10T12:35:26.721Z,3.23
2018-11-10T12:37:55.901Z,4.20
2018-11-10T12:40:24.161Z,3.10
2018-11-10T12:42:52.455Z,3.63
2018-11-10T12:45:20.707Z,3.60
2018-11-10T12:47:48.937Z,3.17
2018-11-10T12:50:17.181Z,3.67
2018-11-10T12:52:45.873Z,3.23
2018-11-10T12:55:15.334Z,3.67
2018-11-10T12:57:44.261Z,3.53
2018-11-10T13:00:14.208Z,3.10
2018-11-10T13:02:43.001Z,3.57
2018-11-10T13:05:11.878Z,3.50
2018-11-10T13:07:41.374Z,3.70
2018-11-10T13:10:10.253Z,4.97
2018-11-10T13:12:38.749Z,4.03
2018-11-10T13:15:07.214Z,3.90
2018-11-10T13:17:35.508Z,4.20
2018-11-10T13:20:03.762Z,5.07
2018-11-10T13:22:31.978Z,4.10
2018-11-10T13:25:00.234Z,4.43
2018-11-10T13:27:28.585Z,5.00
2018-11-10T13:29:56.869Z,4.17
2018-11-10T13:32:25.130Z,4.10
2018-11-10T13:34:53.382Z,4.27
2018-11-10T13:37:21.620Z,5.50
2018-11-10T13:39:49.862Z,4.10
2018-11-10T13:42:18.200Z,3.97
2018-11-10T13:44:46.405Z,4.40
2018-11-10T13:47:14.639Z,3.90
2018-11-10T13:49:42.881Z,4.10
2018-11-10T13:52:11.479Z,4.60
2018-11-10T13:54:39.414Z,4.57
2018-11-10T13:57:14.031Z,4.40
2018-11-10T13:59:42.309Z,4.27
2018-11-10T14:02:10.538Z,4.37
2018-11-10T14:04:38.765Z,4.93
2018-11-10T14:07:07.012Z,5.60
2018-11-10T14:09:35.258Z,5.30
2018-11-10T14:12:03.515Z,5.47
2018-11-10T14:14:31.775Z,5.00
2018-11-10T14:17:00.024Z,5.27
2018-11-10T14:19:28.263Z,5.93
2018-11-10T14:21:56.522Z,5.50
2018-11-10T14:24:24.755Z,8.77
2018-11-10T14:26:53.015Z,6.07
2018-11-10T14:29:21.263Z,5.63
2018-11-10T14:31:49.555Z,6.90
2018-11-10T14:34:17.866Z,5.90
2018-11-10T14:36:46.227Z,5.53
2018-11-10T14:39:14.502Z,6.47
2018-11-10T14:41:42.768Z,6.03
2018-11-10T14:44:11.087Z,5.90
2018-11-10T14:46:39.272Z,6.50
2018-11-10T14:49:07.926Z,5.77
2018-11-10T14:51:36.171Z,6.50
2018-11-10T14:54:04.707Z,8.60
2018-11-10T14:56:32.943Z,6.70
2018-11-10T14:59:01.256Z,7.63
2018-11-10T15:01:29.499Z,6.97
2018-11-10T15:03:58.901Z,6.33
2018-11-10T15:06:34.631Z,6.77
2018-11-10T15:09:02.943Z,6.67
2018-11-10T15:11:32.495Z,6.33
2018-11-10T15:14:00.919Z,5.53
2018-11-10T15:16:30.083Z,6.07
2018-11-10T15:18:58.395Z,6.70
2018-11-10T15:21:27.636Z,8.03
2018-11-10T15:23:56.335Z,5.70
2018-11-10T15:26:24.923Z,6.87
2018-11-10T15:28:53.275Z,6.67
2018-11-10T15:31:22.016Z,7.17
2018-11-10T15:33:51.320Z,6.77
2018-11-10T15:36:19.849Z,6.30
2018-11-10T15:38:48.308Z,8.03
2018-11-10T15:41:17.128Z,6.70
2018-11-10T15:43:45.464Z,9.10
2018-11-10T15:46:14.312Z,9.63
2018-11-10T15:48:42.875Z,6.73
2018-11-10T15:51:11.459Z,7.30
2018-11-10T15:53:39.872Z,11.57
2018-11-10T15:56:08.357Z,6.57
2018-11-10T15:58:36.732Z,8.47
2018-11-10T16:01:06.717Z,7.07
2018-11-10T16:03:36.066Z,7.07
2018-11-10T16:06:04.519Z,10.83
2018-11-10T16:08:32.884Z,8.77
2018-11-10T16:11:01.273Z,8.67
2018-11-10T16:13:29.604Z,6.97
2018-11-10T16:16:01.004Z,17.53
2018-11-10T16:18:29.519Z,23.00
2018-11-10T16:20:57.899Z,16.37
2018-11-10T16:23:26.320Z,15.07
2018-11-10T16:25:54.698Z,15.70
2018-11-10T16:28:23.127Z,10.40
2018-11-10T16:30:51.472Z,9.47
2018-11-10T16:33:19.898Z,8.77
2018-11-10T16:35:48.301Z,9.53
2018-11-10T16:38:16.852Z,9.40
2018-11-10T16:40:45.180Z,8.80
2018-11-10T16:43:13.613Z,8.03
2018-11-10T16:45:42.037Z,9.80
2018-11-10T16:48:10.450Z,8.80
2018-11-10T16:50:38.857Z,7.37
2018-11-10T16:53:07.856Z,7.03
2018-11-10T16:55:36.189Z,7.10
2018-11-10T16:58:05.626Z,7.30
2018-11-10T17:00:34.213Z,7.47
2018-11-10T17:03:02.728Z,6.37
2018-11-10T17:05:31.311Z,6.33
2018-11-10T17:07:59.692Z,6.37
2018-11-10T17:10:28.161Z,6.60
2018-11-10T17:12:56.485Z,6.97
2018-11-10T17:15:24.891Z,6.70
2018-11-10T17:17:53.302Z,6.70
2018-11-10T17:20:21.805Z,8.03
2018-11-10T17:22:50.126Z,6.80
2018-11-10T17:25:18.506Z,6.93
2018-11-10T17:27:46.991Z,6.23
2018-11-10T17:30:16.807Z,6.13
2018-11-10T17:32:45.072Z,6.33
2018-11-10T17:35:13.893Z,6.10
2018-11-10T17:37:42.374Z,6.33
2018-11-10T17:40:11.647Z,5.60
2018-11-10T17:42:40.022Z,5.70
2018-11-10T17:45:10.414Z,5.70
2018-11-10T17:47:38.881Z,7.37
2018-11-10T17:50:13.074Z,6.23
2018-11-10T17:52:41.830Z,6.60
2018-11-10T17:55:11.575Z,11.27
2018-11-10T17:57:40.394Z,7.30
2018-11-10T18:00:08.885Z,6.43
2018-11-10T18:02:37.250Z,6.47
2018-11-10T18:05:07.269Z,10.83
2018-11-10T18:07:35.590Z,8.43
2018-11-10T18:10:04.125Z,6.33
2018-11-10T18:12:32.530Z,5.60
2018-11-10T18:15:00.898Z,6.80
2018-11-10T18:17:35.978Z,9.33
2018-11-10T18:20:04.821Z,5.47
2018-11-10T18:22:33.198Z,5.40
2018-11-10T18:25:01.591Z,7.37
2018-11-10T18:27:29.863Z,4.77
2018-11-10T18:29:58.275Z,6.57
2018-11-10T18:32:26.863Z,7.80
2018-11-10T18:34:55.179Z,6.00
2018-11-10T18:37:23.594Z,8.03
2018-11-10T18:39:52.073Z,5.87
2018-11-10T18:42:20.507Z,6.33
2018-11-10T18:44:48.856Z,6.00
2018-11-10T18:47:17.175Z,5.63
2018-11-10T18:49:45.515Z,5.53
2018-11-10T18:52:14.198Z,5.83
2018-11-10T18:54:42.426Z,5.07
2018-11-10T18:57:10.918Z,5.53
2018-11-10T18:59:39.143Z,4.93
2018-11-10T19:02:07.478Z,5.00
2018-11-10T19:04:35.783Z,4.83
2018-11-10T19:07:04.150Z,5.40
2018-11-10T19:09:32.595Z,5.53
2018-11-10T19:12:00.994Z,5.07
2018-11-10T19:14:29.420Z,6.10
2018-11-10T19:16:57.743Z,5.93
2018-11-10T19:19:26.253Z,5.63
2018-11-10T19:21:54.828Z,5.23
2018-11-10T19:24:23.119Z,8.90
2018-11-10T19:26:51.428Z,5.30
2018-11-10T19:29:19.931Z,5.37
2018-11-10T19:31:48.235Z,4.47
2018-11-10T19:34:16.655Z,4.40
2018-11-10T19:36:44.984Z,5.73
2018-11-10T19:39:13.455Z,3.73
2018-11-10T19:41:42.023Z,3.90
2018-11-10T19:44:10.904Z,3.87
2018-11-10T19:46:40.364Z,5.73
2018-11-10T19:49:09.175Z,4.10
2018-11-10T19:51:37.808Z,3.80
2018-11-10T19:54:05.844Z,3.60
2018-11-10T19:56:34.111Z,4.57
2018-11-10T19:59:02.495Z,3.57
2018-11-10T20:01:30.875Z,4.27
2018-11-10T20:03:59.249Z,3.00
2018-11-10T20:06:27.648Z,3.97
2018-11-10T20:08:55.960Z,3.20
2018-11-10T20:11:24.380Z,4.87
2018-11-10T20:13:52.873Z,3.60
2018-11-10T20:16:21.272Z,3.70
2018-11-10T20:18:49.649Z,3.27
2018-11-10T20:21:18.099Z,3.60
2018-11-10T20:23:46.513Z,4.80
2018-11-10T20:26:14.875Z,3.70
2018-11-10T20:28:43.150Z,3.40
2018-11-10T20:31:11.448Z,4.17
2018-11-10T20:33:39.728Z,3.20
2018-11-10T20:36:08.044Z,2.93
2018-11-10T20:38:36.392Z,3.73
2018-11-10T20:41:05.116Z,3.27
2018-11-10T20:43:33.500Z,3.20
2018-11-10T20:46:01.864Z,3.10
2018-11-10T20:48:30.264Z,3.00
2018-11-10T20:50:58.633Z,3.37
2018-11-10T20:53:26.930Z,3.20
2018-11-10T20:55:55.193Z,3.80
2018-11-10T20:58:23.524Z,3.33
2018-11-10T21:00:51.917Z,3.50
2018-11-10T21:03:21.925Z,3.40
2018-11-10T21:05:50.288Z,3.70
2018-11-10T21:08:18.617Z,4.87
2018-11-10T21:10:47.013Z,3.60
2018-11-10T21:13:15.404Z,3.90
2018-11-10T21:15:43.708Z,3.70
2018-11-10T21:18:12.049Z,4.00
2018-11-10T21:20:40.339Z,4.93
2018-11-10T21:23:08.784Z,3.90
2018-11-10T21:25:37.133Z,4.50
2018-11-10T21:28:05.589Z,4.30
2018-11-10T21:30:33.917Z,4.10
2018-11-10T21:33:02.401Z,4.50
2018-11-10T21:35:30.822Z,4.67
2018-11-10T21:37:59.201Z,4.33
2018-11-10T21:40:27.577Z,5.30
2018-11-10T21:42:56.005Z,5.80
2018-11-10T21:45:24.352Z,5.30
2018-11-10T21:47:52.729Z,5.93
2018-11-10T21:50:21.118Z,5.70
2018-11-10T21:52:49.459Z,5.33
2018-11-10T21:55:19.159Z,5.30
2018-11-10T21:57:48.185Z,5.27
2018-11-10T22:00:18.094Z,6.00
2018-11-10T22:02:46.920Z,5.70
2018-11-10T22:05:15.223Z,6.00
2018-11-10T22:07:43.546Z,6.97
2018-11-10T22:10:14.105Z,6.00
2018-11-10T22:12:42.581Z,6.50
2018-11-10T22:15:14.730Z,6.47
2018-11-10T22:17:43.996Z,6.57
2018-11-10T22:20:15.418Z,6.50
2018-11-10T22:22:43.759Z,7.50
2018-11-10T22:25:13.353Z,6.47
2018-11-10T22:27:42.882Z,6.83
2018-11-10T22:30:13.077Z,7.03
2018-11-10T22:32:42.008Z,6.13
2018-11-10T22:35:10.645Z,5.30
2018-11-10T22:37:39.072Z,5.57
2018-11-10T22:40:09.958Z,5.83
2018-11-10T22:42:39.198Z,5.90
2018-11-10T22:45:09.283Z,5.50
2018-11-10T22:47:37.989Z,5.60
2018-11-10T22:50:09.302Z,5.80
2018-11-10T22:52:37.734Z,5.70
2018-11-10T22:55:06.682Z,6.37
2018-11-10T22:57:35.114Z,5.43
2018-11-10T23:00:04.295Z,5.73
2018-11-10T23:02:32.642Z,5.30
2018-11-10T23:05:00.935Z,4.77
2018-11-10T23:07:29.379Z,4.63
2018-11-10T23:09:57.662Z,4.40
2018-11-10T23:12:25.990Z,4.70
2018-11-10T23:14:54.303Z,6.07
2018-11-10T23:17:22.687Z,8.57
2018-11-10T23:19:50.975Z,4.20
2018-11-10T23:22:19.342Z,4.33
2018-11-10T23:24:47.634Z,5.23
2018-11-10T23:27:15.963Z,4.60
2018-11-10T23:29:44.410Z,4.60
2018-11-10T23:32:12.786Z,4.30
2018-11-10T23:34:41.081Z,5.63
2018-11-10T23:37:09.443Z,4.43
2018-11-10T23:39:37.859Z,5.10
2018-11-10T23:42:06.327Z,4.70
2018-11-10T23:44:34.939Z,5.43
2018-11-10T23:47:03.211Z,5.33
2018-11-10T23:49:31.610Z,4.93
2018-11-10T23:51:59.978Z,4.90
2018-11-10T23:54:28.359Z,4.97
2018-11-10T23:56:56.654Z,4.37
2018-11-10T23:59:25.106Z,4.77
